Terminal Aerodrome Forecast
Issued by NWS Wilmington, OH

Home | Current Version | Previous Version | Graphics & Text | Print | Product List | Glossary Off
Versions: 1 2 3 4 5 6 7 8 9 10 11 12 13 14 15 16 17 18 19 20

703
FTUS41 KILN 220535
TAFCMH
TAF
KCMH 220535Z 2206/2306 20005KT P6SM FEW140 BKN250
     FM221400 26010KT P6SM SCT040 BKN150
     FM221700 24012KT P6SM VCTS SCT040CB BKN150
     FM230000 24005KT P6SM SCT250=

USA.gov is the U.S. government's official web portal to all federal, state and local government web resources and services.